Aérodrome :
LOGIN :

S'inscrire | Disclaimer

   EN    FR    IT 

 










Légende :    VFR   VFR Marginal   IFR   IFR Intensif   IFR Très Intensif
Visi : 
Plafond : 
>= 8 km
>= 3000ft
5 à 8 km
1000 à 3000 ft
1500m à 5 km
500 à 1000 ft
800 à 1500m
200 à 500 ft
< 800m
< 200 ft
Symboles :   Orages  Brouillard  Fortes neiges  Fortes précipitations  Vent > 20 kt
SIGMETs :   Divers  Orages  Givrage  Turbulence  Onde Orograph.  Cendres Volcan.






- Altitude de l'aérodrome : 529 ft
- Code IATA : CHR


LFLX - Chateauroux

DERNIER METAR :
  • 070030Z AUTO 22013KT 6000 -RADZ OVC005 09/08 Q1018 TEMPO 2500 DZ

METARs EXPIRÉS :
  • 070000Z AUTO 22014KT 7000 -DZ OVC005 08/08 Q1018 TEMPO 2500 DZ
  • 062330Z AUTO 21014KT 5000 -DZ BR OVC005 08/08 Q1018 TEMPO 2500 DZ
  • 062300Z AUTO 22011KT 5000 -DZ BR OVC007 09/08 Q1018 TEMPO BKN004
  • 062230Z AUTO 23012KT 6000 -RA OVC008 09/08 Q1018 TEMPO 4000 BR BKN004
  • 062200Z AUTO 22014KT 9999 OVC010 09/08 Q1018 TEMPO 4000 BR BKN004

TAF TAF LFLX
Valide du 07 à 00h jusqu'au 08 à 06h UTC


062300Z 0700/0806 22010KT 9999 BKN014
TEMPO 0700/0712 2500 DZ BKN006
BECMG 0712/0714 BKN035
BECMG 0721/0723 BKN008



MET'MAP, la Météo Aéronautique d'un coup d'oeil ! - Copyright ORBIFLY Décembre 2007 - Disclaimer

ORBIFLY MET'MAP TEAM :

Programmation & Développement : Alexandra Zaïnal
Sur une idée originale de : Baudouin d'Aumeries
Assistance à la programmation : Marc-Olivier Méhu
Soutien technique & logistique : Manuel Goepfert

Contact : metmap@orbifly.com




SOURCES & CREDITS :

   NOAA